createdAt,value
2018-07-30T00:00:34.771Z,22.41
2018-07-30T00:03:05.785Z,22.39
2018-07-30T00:05:36.749Z,22.44
2018-07-30T00:08:07.674Z,22.39
2018-07-30T00:10:40.159Z,22.32
2018-07-30T00:13:11.115Z,22.39
2018-07-30T00:15:41.981Z,22.33
2018-07-30T00:18:12.816Z,22.34
2018-07-30T00:20:43.828Z,22.22
2018-07-30T00:23:15.871Z,22.14
2018-07-30T00:25:46.998Z,22.24
2018-07-30T00:28:17.852Z,22.10
2018-07-30T00:30:48.871Z,22.04
2018-07-30T00:33:19.834Z,22.11
2018-07-30T00:35:50.691Z,22.18
2018-07-30T00:38:21.757Z,22.04
2018-07-30T00:40:52.819Z,21.97
2018-07-30T00:43:23.586Z,22.00
2018-07-30T00:45:54.632Z,22.11
2018-07-30T00:48:25.452Z,22.02
2018-07-30T00:50:56.469Z,21.96
2018-07-30T00:53:27.895Z,21.91
2018-07-30T00:56:00.502Z,21.93
2018-07-30T00:58:34.419Z,21.96
2018-07-30T01:01:06.137Z,22.03
2018-07-30T01:03:37.295Z,21.96
2018-07-30T01:06:08.172Z,21.92
2018-07-30T01:08:39.064Z,21.91
2018-07-30T01:11:10.212Z,22.03
2018-07-30T01:13:41.505Z,21.95
2018-07-30T01:16:13.616Z,22.00
2018-07-30T01:18:44.472Z,22.07
2018-07-30T01:21:15.541Z,22.07
2018-07-30T01:23:46.664Z,22.04
2018-07-30T01:26:22.270Z,22.00
2018-07-30T01:28:53.100Z,22.01
2018-07-30T01:31:24.204Z,22.03
2018-07-30T01:33:55.577Z,22.07
2018-07-30T01:36:26.581Z,22.06
2018-07-30T01:38:57.619Z,22.00
2018-07-30T01:41:28.469Z,21.97
2018-07-30T01:43:59.524Z,21.97
2018-07-30T01:46:30.333Z,21.87
2018-07-30T01:49:01.344Z,21.80
2018-07-30T01:51:32.758Z,21.71
2018-07-30T01:54:03.640Z,21.75
2018-07-30T01:56:34.640Z,21.86
2018-07-30T01:59:05.533Z,21.92
2018-07-30T02:01:36.632Z,21.87
2018-07-30T02:04:08.078Z,21.71
2018-07-30T02:06:38.971Z,21.74
2018-07-30T02:09:11.474Z,21.77
2018-07-30T02:11:44.105Z,21.73
2018-07-30T02:14:15.177Z,21.83
2018-07-30T02:16:49.333Z,21.76
2018-07-30T02:19:20.354Z,21.79
2018-07-30T02:21:51.404Z,21.86
2018-07-30T02:24:22.668Z,21.81
2018-07-30T02:26:54.377Z,21.80
2018-07-30T02:29:25.737Z,21.94
2018-07-30T02:31:56.934Z,21.83
2018-07-30T02:34:27.827Z,21.87
2018-07-30T02:36:59.246Z,21.79
2018-07-30T02:39:30.191Z,21.89
2018-07-30T02:42:01.195Z,21.84
2018-07-30T02:44:32.208Z,21.82
2018-07-30T02:47:03.232Z,21.88
2018-07-30T02:49:35.347Z,21.90
2018-07-30T02:52:06.566Z,21.95
2018-07-30T02:54:37.733Z,22.00
2018-07-30T02:57:09.146Z,22.07
2018-07-30T02:59:40.160Z,21.96
2018-07-30T03:02:11.108Z,22.11
2018-07-30T03:04:42.619Z,22.07
2018-07-30T03:07:15.351Z,22.08
2018-07-30T03:09:46.380Z,22.09
2018-07-30T03:12:19.014Z,22.20
2018-07-30T03:14:51.376Z,22.20
2018-07-30T03:17:22.354Z,22.37
2018-07-30T03:19:53.740Z,22.62
2018-07-30T03:22:24.862Z,22.80
2018-07-30T03:24:56.237Z,23.09
2018-07-30T03:27:27.304Z,23.55
2018-07-30T03:29:58.480Z,24.09
2018-07-30T03:32:29.700Z,24.75
2018-07-30T03:35:00.863Z,25.26
2018-07-30T03:37:31.844Z,25.52
2018-07-30T03:40:03.054Z,25.49
2018-07-30T03:42:35.990Z,25.56
2018-07-30T03:45:09.759Z,26.32
2018-07-30T03:47:40.845Z,26.82
2018-07-30T03:50:15.030Z,27.63
2018-07-30T03:52:47.194Z,28.35
2018-07-30T03:55:17.979Z,29.17
2018-07-30T03:57:48.974Z,28.55
2018-07-30T04:00:20.008Z,28.20
2018-07-30T04:02:51.200Z,28.35
2018-07-30T04:05:22.062Z,27.98
2018-07-30T04:07:52.940Z,29.31
2018-07-30T04:10:23.915Z,32.03
2018-07-30T04:12:56.343Z,33.39
2018-07-30T04:15:27.444Z,33.52
2018-07-30T04:17:58.461Z,34.31
2018-07-30T04:20:29.305Z,35.09
2018-07-30T04:23:00.749Z,33.99
2018-07-30T04:25:32.056Z,34.36
2018-07-30T04:28:02.967Z,35.42
2018-07-30T04:30:33.823Z,36.31
2018-07-30T04:33:05.368Z,37.21
2018-07-30T04:35:37.317Z,37.50
2018-07-30T04:38:08.427Z,36.97
2018-07-30T04:40:39.321Z,35.97
2018-07-30T04:43:12.901Z,36.23
2018-07-30T04:45:43.921Z,36.13
2018-07-30T04:48:15.120Z,35.37
2018-07-30T04:50:46.640Z,34.83
2018-07-30T04:53:17.627Z,33.73
2018-07-30T04:55:49.627Z,34.18
2018-07-30T04:58:20.421Z,34.69
2018-07-30T05:00:51.325Z,34.13
2018-07-30T05:03:22.409Z,33.15
2018-07-30T05:05:53.657Z,33.51
2018-07-30T05:08:25.138Z,32.17
2018-07-30T05:10:56.072Z,33.29
2018-07-30T05:13:28.725Z,32.74
2018-07-30T05:15:59.834Z,32.06
2018-07-30T05:18:30.958Z,31.71
2018-07-30T05:21:01.880Z,32.65
2018-07-30T05:23:33.976Z,32.79
2018-07-30T05:26:05.611Z,32.79
2018-07-30T05:28:36.791Z,32.92
2018-07-30T05:31:07.920Z,31.91
2018-07-30T05:33:40.563Z,30.79
2018-07-30T05:36:11.370Z,31.33
2018-07-30T05:38:42.929Z,31.23
2018-07-30T05:41:13.953Z,31.33
2018-07-30T05:43:45.060Z,31.89
2018-07-30T05:46:15.858Z,31.05
2018-07-30T05:48:48.463Z,32.15
2018-07-30T05:51:20.521Z,32.17
2018-07-30T05:53:51.506Z,31.55
2018-07-30T05:56:23.470Z,32.47
2018-07-30T05:58:54.532Z,33.52
2018-07-30T06:01:26.528Z,35.63
2018-07-30T06:03:57.914Z,33.77
2018-07-30T06:06:29.023Z,34.90
2018-07-30T06:09:00.675Z,35.16
2018-07-30T06:11:32.022Z,35.76
2018-07-30T06:14:03.608Z,36.41
2018-07-30T06:16:34.765Z,35.64
2018-07-30T06:19:05.843Z,36.33
2018-07-30T06:21:36.996Z,35.00
2018-07-30T06:24:08.559Z,36.33
2018-07-30T06:26:39.594Z,35.92
2018-07-30T06:29:10.552Z,35.39
2018-07-30T06:31:42.493Z,35.84
2018-07-30T06:34:13.547Z,34.84
2018-07-30T06:36:44.561Z,33.09
2018-07-30T06:39:16.080Z,33.32
2018-07-30T06:41:47.606Z,32.07
2018-07-30T06:44:18.840Z,30.42
2018-07-30T06:46:50.265Z,28.87
2018-07-30T06:49:21.225Z,29.12
2018-07-30T06:51:52.216Z,29.06
2018-07-30T06:54:23.254Z,29.40
2018-07-30T06:56:54.469Z,32.24
2018-07-30T06:59:25.742Z,32.84
2018-07-30T07:01:57.787Z,32.62
2018-07-30T07:04:29.047Z,31.89
2018-07-30T07:07:00.090Z,30.89
2018-07-30T07:09:31.225Z,31.06
2018-07-30T07:12:02.540Z,31.05
2018-07-30T07:14:33.861Z,30.91
2018-07-30T07:17:04.966Z,30.40
2018-07-30T07:19:36.196Z,30.50
2018-07-30T07:22:07.584Z,30.24
2018-07-30T07:24:39.252Z,30.01
2018-07-30T07:27:10.400Z,29.96
2018-07-30T07:29:41.881Z,29.86
2018-07-30T07:32:13.496Z,29.63
2018-07-30T07:34:46.381Z,29.37
2018-07-30T07:37:18.121Z,29.95
2018-07-30T07:39:49.466Z,30.39
2018-07-30T07:42:20.578Z,30.38
2018-07-30T07:44:52.996Z,30.25
2018-07-30T07:47:25.180Z,29.53
2018-07-30T07:49:56.345Z,29.77
2018-07-30T07:52:27.488Z,29.77
2018-07-30T07:54:58.470Z,29.80
2018-07-30T07:57:30.020Z,29.56
2018-07-30T08:00:01.042Z,29.17
2018-07-30T08:02:32.789Z,29.24
2018-07-30T08:05:04.031Z,29.08
2018-07-30T08:07:35.662Z,29.20
2018-07-30T08:10:07.626Z,29.12
2018-07-30T08:12:38.707Z,28.97
2018-07-30T08:15:10.184Z,29.26
2018-07-30T08:17:41.380Z,29.03
2018-07-30T08:20:12.738Z,29.31
2018-07-30T08:22:43.791Z,29.69
2018-07-30T08:25:18.031Z,29.02
2018-07-30T08:27:48.940Z,29.54
2018-07-30T08:30:20.925Z,29.94
2018-07-30T08:32:52.898Z,30.10
2018-07-30T08:35:23.957Z,30.66
2018-07-30T08:37:54.842Z,31.39
2018-07-30T08:40:26.761Z,31.59
2018-07-30T08:42:58.511Z,31.74
2018-07-30T08:45:29.789Z,31.43
2018-07-30T08:48:01.291Z,31.67
2018-07-30T08:50:32.201Z,30.56
2018-07-30T08:53:03.076Z,30.58
2018-07-30T08:55:34.896Z,30.45
2018-07-30T08:58:08.595Z,30.20
2018-07-30T09:00:39.729Z,30.21
2018-07-30T09:03:10.908Z,29.50
2018-07-30T09:05:42.317Z,29.59
2018-07-30T09:08:14.362Z,29.66
2018-07-30T09:10:46.413Z,29.63
2018-07-30T09:13:18.236Z,29.75
2018-07-30T09:15:49.580Z,29.54
2018-07-30T09:18:20.692Z,29.35
2018-07-30T09:20:51.864Z,29.04
2018-07-30T09:23:23.048Z,28.89
2018-07-30T09:25:54.782Z,28.98
2018-07-30T09:28:26.034Z,29.08
2018-07-30T09:31:01.548Z,28.73
2018-07-30T09:33:32.843Z,28.51
2018-07-30T09:36:03.998Z,28.89
2018-07-30T09:38:35.041Z,28.92
2018-07-30T09:41:06.908Z,29.11
2018-07-30T09:43:37.602Z,29.58
2018-07-30T09:46:08.670Z,29.72
2018-07-30T09:48:39.704Z,29.69
2018-07-30T09:51:10.988Z,29.47
2018-07-30T09:53:42.031Z,29.20
2018-07-30T09:56:13.296Z,29.42
2018-07-30T09:58:44.484Z,29.37
2018-07-30T10:01:31.734Z,29.13
2018-07-30T10:04:07.343Z,28.07
2018-07-30T10:06:38.289Z,27.81
2018-07-30T10:09:13.408Z,27.49
2018-07-30T10:11:44.445Z,27.11
2018-07-30T10:14:16.010Z,26.41
2018-07-30T10:16:52.799Z,25.74
2018-07-30T10:19:25.143Z,25.27
2018-07-30T10:21:56.613Z,24.71
2018-07-30T10:24:28.357Z,24.25
2018-07-30T10:26:59.606Z,24.28
2018-07-30T10:29:30.903Z,24.36
2018-07-30T10:32:03.499Z,24.26
2018-07-30T10:34:34.372Z,24.01
2018-07-30T10:37:05.495Z,23.76
2018-07-30T10:39:36.624Z,24.03
2018-07-30T10:42:08.766Z,24.05
2018-07-30T10:44:39.706Z,24.30
2018-07-30T10:47:10.702Z,24.60
2018-07-30T10:49:42.592Z,25.08
2018-07-30T10:52:13.693Z,25.29
2018-07-30T10:54:45.213Z,25.72
2018-07-30T10:57:20.000Z,25.71
2018-07-30T10:59:50.998Z,25.99
2018-07-30T11:02:22.624Z,26.53
2018-07-30T11:04:53.605Z,27.08
2018-07-30T11:07:25.135Z,27.33
2018-07-30T11:09:55.945Z,27.18
2018-07-30T11:12:27.929Z,27.37
2018-07-30T11:14:59.297Z,26.93
2018-07-30T11:17:30.270Z,26.90
2018-07-30T11:20:01.214Z,27.25
2018-07-30T11:22:32.558Z,27.61
2018-07-30T11:25:03.432Z,27.84
2018-07-30T11:27:34.372Z,28.07
2018-07-30T11:30:06.299Z,28.22
2018-07-30T11:32:37.444Z,28.00
2018-07-30T11:35:08.498Z,27.94
2018-07-30T11:37:40.645Z,27.54
2018-07-30T11:40:11.579Z,27.35
2018-07-30T11:42:45.006Z,27.45
2018-07-30T11:45:16.371Z,27.58
2018-07-30T11:47:47.575Z,27.68
2018-07-30T11:50:19.179Z,27.71
2018-07-30T11:52:50.337Z,27.51
2018-07-30T11:55:21.312Z,27.30
2018-07-30T11:57:52.856Z,27.66
2018-07-30T12:00:23.891Z,27.43
2018-07-30T12:02:55.034Z,26.81
2018-07-30T12:05:26.218Z,26.42
2018-07-30T12:07:57.176Z,26.27
2018-07-30T12:10:28.136Z,26.00
2018-07-30T12:13:00.937Z,25.88
2018-07-30T12:15:31.886Z,25.55
2018-07-30T12:18:03.022Z,25.70
2018-07-30T12:20:36.114Z,25.70
2018-07-30T12:23:09.119Z,25.51
2018-07-30T12:25:40.175Z,25.46
2018-07-30T12:28:11.182Z,25.32
2018-07-30T12:30:42.308Z,25.08
2018-07-30T12:33:16.179Z,25.40
2018-07-30T12:35:47.461Z,25.57
2018-07-30T12:38:19.630Z,25.52
2018-07-30T12:40:51.181Z,25.37
2018-07-30T12:43:23.073Z,25.30
2018-07-30T12:45:54.331Z,25.27
2018-07-30T12:48:26.895Z,25.31
2018-07-30T12:50:58.114Z,25.71
2018-07-30T12:53:29.449Z,25.80
2018-07-30T12:56:00.615Z,25.92
2018-07-30T12:58:32.783Z,25.89
2018-07-30T13:01:03.745Z,25.65
2018-07-30T13:03:37.105Z,25.85
2018-07-30T13:06:08.245Z,25.83
2018-07-30T13:08:40.132Z,25.79
2018-07-30T13:11:11.147Z,25.30
2018-07-30T13:13:43.191Z,25.81
2018-07-30T13:16:14.628Z,26.09
2018-07-30T13:18:46.745Z,26.21
2018-07-30T13:21:17.859Z,26.35
2018-07-30T13:23:48.898Z,26.66
2018-07-30T13:26:20.095Z,26.80
2018-07-30T13:28:51.301Z,26.76
2018-07-30T13:31:22.823Z,27.07
2018-07-30T13:33:53.852Z,27.01
2018-07-30T13:36:24.683Z,27.13
2018-07-30T13:38:56.486Z,27.26
2018-07-30T13:41:28.903Z,27.08
2018-07-30T13:44:00.957Z,26.93
2018-07-30T13:46:31.873Z,26.72
2018-07-30T13:49:04.132Z,26.80
2018-07-30T13:51:35.890Z,26.77
2018-07-30T13:54:07.204Z,26.97
2018-07-30T13:56:38.078Z,26.91
2018-07-30T13:59:10.145Z,27.01
2018-07-30T14:01:41.230Z,26.79
2018-07-30T14:04:12.084Z,26.59
2018-07-30T14:06:45.102Z,26.42
2018-07-30T14:09:17.012Z,26.46
2018-07-30T14:11:48.562Z,26.55
2018-07-30T14:14:21.491Z,26.63
2018-07-30T14:16:52.370Z,26.52
2018-07-30T14:19:23.554Z,26.46
2018-07-30T14:21:54.765Z,26.59
2018-07-30T14:24:26.246Z,26.36
2018-07-30T14:26:57.495Z,26.30
2018-07-30T14:29:30.083Z,26.23
2018-07-30T14:32:01.021Z,26.09
2018-07-30T14:34:32.405Z,26.08
2018-07-30T14:37:05.241Z,26.04
2018-07-30T14:39:36.967Z,26.30
2018-07-30T14:42:07.900Z,26.50
2018-07-30T14:44:39.033Z,26.48
2018-07-30T14:47:11.467Z,26.64
2018-07-30T14:49:43.329Z,26.70
2018-07-30T14:52:15.170Z,26.69
2018-07-30T14:54:46.223Z,26.55
2018-07-30T14:57:17.643Z,26.51
2018-07-30T14:59:49.527Z,26.49
2018-07-30T15:02:20.847Z,26.43
2018-07-30T15:04:52.147Z,26.32
2018-07-30T15:07:23.043Z,26.40
2018-07-30T15:09:54.318Z,26.21
2018-07-30T15:12:26.145Z,26.13
2018-07-30T15:14:58.908Z,26.23
2018-07-30T15:17:30.711Z,26.03
2018-07-30T15:20:03.877Z,26.23
2018-07-30T15:22:35.102Z,26.25
2018-07-30T15:25:06.867Z,26.08
2018-07-30T15:27:38.286Z,26.27
2018-07-30T15:30:12.409Z,26.19
2018-07-30T15:32:43.336Z,26.26
2018-07-30T15:35:14.331Z,26.24
2018-07-30T15:37:45.718Z,25.96
2018-07-30T15:40:17.098Z,25.86
2018-07-30T15:42:48.188Z,25.63
2018-07-30T15:45:19.315Z,25.52
2018-07-30T15:47:52.254Z,25.53
2018-07-30T15:50:26.793Z,25.38
2018-07-30T15:52:58.625Z,25.42
2018-07-30T15:55:29.660Z,25.33
2018-07-30T15:58:00.857Z,25.25
2018-07-30T16:00:32.008Z,25.37
2018-07-30T16:03:03.199Z,25.46
2018-07-30T16:05:35.413Z,25.31
2018-07-30T16:08:06.714Z,25.17
2018-07-30T16:10:39.053Z,25.09
2018-07-30T16:13:10.042Z,25.12
2018-07-30T16:15:41.213Z,25.14
2018-07-30T16:18:12.286Z,25.16
2018-07-30T16:20:44.249Z,25.08
2018-07-30T16:23:15.552Z,25.06
2018-07-30T16:25:46.650Z,24.96
2018-07-30T16:28:17.661Z,24.97
2018-07-30T16:30:49.775Z,24.94
2018-07-30T16:33:21.003Z,24.85
2018-07-30T16:35:52.927Z,24.91
2018-07-30T16:38:24.083Z,24.99
2018-07-30T16:40:55.522Z,24.92
2018-07-30T16:43:27.810Z,24.75
2018-07-30T16:46:00.921Z,24.70
2018-07-30T16:48:32.117Z,24.57
2018-07-30T16:51:03.569Z,24.60
2018-07-30T16:53:34.670Z,24.63
2018-07-30T16:56:06.033Z,24.66
2018-07-30T16:58:37.074Z,24.62
2018-07-30T17:01:08.333Z,24.39
2018-07-30T17:03:41.358Z,24.46
2018-07-30T17:06:19.090Z,24.37
2018-07-30T17:08:50.078Z,24.30
2018-07-30T17:11:20.988Z,24.26
2018-07-30T17:13:52.016Z,24.04
2018-07-30T17:16:25.503Z,23.92
2018-07-30T17:18:57.882Z,23.97
2018-07-30T17:21:29.076Z,23.98
2018-07-30T17:24:00.059Z,23.90
2018-07-30T17:26:34.507Z,23.83
2018-07-30T17:29:07.685Z,23.81
2018-07-30T17:31:38.831Z,23.67
2018-07-30T17:34:10.026Z,23.70
2018-07-30T17:36:41.373Z,23.67
2018-07-30T17:39:13.048Z,23.70
2018-07-30T17:41:44.097Z,23.62
2018-07-30T17:44:15.390Z,23.51
2018-07-30T17:46:48.203Z,23.46
2018-07-30T17:49:19.272Z,23.53
2018-07-30T17:51:50.915Z,23.57
2018-07-30T17:54:23.308Z,23.56
2018-07-30T17:56:54.796Z,23.57
2018-07-30T17:59:25.764Z,23.57
2018-07-30T18:01:57.185Z,23.52
2018-07-30T18:04:30.923Z,23.50
2018-07-30T18:07:02.382Z,23.49
2018-07-30T18:09:34.155Z,23.50
2018-07-30T18:12:05.681Z,23.48
2018-07-30T18:14:36.711Z,23.48
2018-07-30T18:17:09.450Z,23.43
2018-07-30T18:19:47.223Z,23.38
2018-07-30T18:22:18.629Z,23.37
2018-07-30T18:24:49.634Z,23.40
2018-07-30T18:27:24.704Z,23.46
2018-07-30T18:29:55.935Z,23.47
2018-07-30T18:32:27.549Z,23.61
2018-07-30T18:34:59.102Z,23.62
2018-07-30T18:37:30.144Z,23.63
2018-07-30T18:40:02.518Z,23.54
2018-07-30T18:42:33.936Z,23.49
2018-07-30T18:45:05.583Z,23.56
2018-07-30T18:47:37.284Z,23.54
2018-07-30T18:50:08.598Z,23.34
2018-07-30T18:52:41.538Z,23.11
2018-07-30T18:55:12.969Z,23.03
2018-07-30T18:57:46.481Z,23.01
2018-07-30T19:00:19.161Z,23.08
2018-07-30T19:02:50.520Z,23.06
2018-07-30T19:05:22.150Z,23.08
2018-07-30T19:07:54.112Z,23.17
2018-07-30T19:10:25.976Z,23.15
2018-07-30T19:12:58.611Z,23.08
2018-07-30T19:15:30.347Z,23.06
2018-07-30T19:18:03.959Z,23.09
2018-07-30T19:20:36.947Z,23.16
2018-07-30T19:23:09.530Z,23.24
2018-07-30T19:25:42.378Z,23.27
2018-07-30T19:28:13.704Z,23.27
2018-07-30T19:30:53.509Z,23.25
2018-07-30T19:33:25.501Z,23.17
2018-07-30T19:35:58.840Z,23.27
2018-07-30T19:38:30.005Z,23.42
2018-07-30T19:41:04.902Z,23.45
2018-07-30T19:43:36.526Z,23.41
2018-07-30T19:46:08.934Z,23.11
2018-07-30T19:48:40.852Z,23.38
2018-07-30T19:51:12.725Z,23.23
2018-07-30T19:53:43.883Z,23.14
2018-07-30T19:56:15.619Z,23.19
2018-07-30T19:58:47.013Z,23.31
2018-07-30T20:01:18.103Z,23.37
2018-07-30T20:03:49.179Z,23.45
2018-07-30T20:06:20.419Z,23.44
2018-07-30T20:08:51.958Z,23.28
2018-07-30T20:11:24.022Z,23.09
2018-07-30T20:13:55.408Z,23.08
2018-07-30T20:16:27.688Z,23.12
2018-07-30T20:18:59.902Z,23.16
2018-07-30T20:21:30.998Z,23.13
2018-07-30T20:24:02.921Z,23.21
2018-07-30T20:26:36.520Z,23.26
2018-07-30T20:29:08.600Z,23.29
2018-07-30T20:31:40.508Z,23.26
2018-07-30T20:34:12.089Z,23.19
2018-07-30T20:36:43.772Z,23.20
2018-07-30T20:39:15.890Z,23.16
2018-07-30T20:41:47.084Z,23.15
2018-07-30T20:44:19.275Z,23.01
2018-07-30T20:46:52.362Z,23.05
2018-07-30T20:49:24.539Z,22.94
2018-07-30T20:51:56.337Z,22.93
2018-07-30T20:54:27.453Z,22.92
2018-07-30T20:56:58.843Z,22.97
2018-07-30T20:59:30.053Z,23.04
2018-07-30T21:02:01.420Z,23.03
2018-07-30T21:04:32.947Z,23.06
2018-07-30T21:07:04.385Z,23.15
2018-07-30T21:09:36.010Z,23.13
2018-07-30T21:12:07.177Z,23.12
2018-07-30T21:14:38.535Z,23.11
2018-07-30T21:17:09.509Z,23.16
2018-07-30T21:19:41.617Z,23.19
2018-07-30T21:22:13.522Z,23.15
2018-07-30T21:24:44.820Z,23.11
2018-07-30T21:27:18.052Z,23.14
2018-07-30T21:29:49.772Z,23.04
2018-07-30T21:32:20.921Z,23.03
2018-07-30T21:34:52.127Z,23.01
2018-07-30T21:37:23.486Z,23.01
2018-07-30T21:39:56.616Z,23.05
2018-07-30T21:42:27.623Z,23.02
2018-07-30T21:44:58.983Z,22.98
2018-07-30T21:47:31.969Z,22.97
2018-07-30T21:50:03.303Z,22.97
2018-07-30T21:52:34.499Z,22.93
2018-07-30T21:55:06.144Z,22.92
2018-07-30T21:57:37.020Z,22.86
2018-07-30T22:00:10.550Z,22.83
2018-07-30T22:02:41.843Z,22.84
2018-07-30T22:05:16.566Z,22.92
2018-07-30T22:07:47.526Z,22.98
2018-07-30T22:10:19.922Z,22.99
2018-07-30T22:12:51.265Z,22.91
2018-07-30T22:15:22.906Z,23.01
2018-07-30T22:17:54.524Z,22.95
2018-07-30T22:20:26.424Z,22.90
2018-07-30T22:22:57.610Z,22.83
2018-07-30T22:25:29.175Z,22.81
2018-07-30T22:28:00.624Z,22.82
2018-07-30T22:30:31.674Z,22.69
2018-07-30T22:33:02.686Z,22.73
2018-07-30T22:35:33.882Z,22.70
2018-07-30T22:38:04.905Z,22.71
2018-07-30T22:40:35.855Z,22.71
2018-07-30T22:43:07.552Z,22.62
2018-07-30T22:45:38.700Z,22.67
2018-07-30T22:48:09.580Z,22.67
2018-07-30T22:50:40.815Z,22.66
2018-07-30T22:53:11.840Z,22.70
2018-07-30T22:55:42.921Z,22.65
2018-07-30T22:58:13.709Z,22.68
2018-07-30T23:00:45.041Z,22.59
2018-07-30T23:03:16.929Z,22.53
2018-07-30T23:05:48.098Z,22.45
2018-07-30T23:08:19.529Z,22.49
2018-07-30T23:10:51.726Z,22.44
2018-07-30T23:13:24.824Z,22.42
2018-07-30T23:15:56.447Z,22.41
2018-07-30T23:18:27.445Z,22.44
2018-07-30T23:20:58.331Z,22.48
2018-07-30T23:23:29.445Z,22.50
2018-07-30T23:26:00.530Z,22.52
2018-07-30T23:28:31.505Z,22.52
2018-07-30T23:31:02.790Z,22.53
2018-07-30T23:33:33.745Z,22.54
2018-07-30T23:36:04.832Z,22.62
2018-07-30T23:38:36.310Z,22.59
2018-07-30T23:41:07.323Z,22.64
2018-07-30T23:43:38.538Z,22.65
2018-07-30T23:46:09.808Z,22.60
2018-07-30T23:48:40.809Z,22.69
2018-07-30T23:51:13.544Z,22.70
2018-07-30T23:53:44.818Z,22.80
2018-07-30T23:56:16.213Z,22.86
2018-07-30T23:58:47.543Z,22.82
